createdAt,value
2023-07-15T00:01:37.940Z,3.17
2023-07-15T00:04:12.301Z,3.20
2023-07-15T00:06:39.422Z,3.28
2023-07-15T00:09:06.184Z,3.50
2023-07-15T00:11:44.042Z,3.40
2023-07-15T00:14:23.130Z,3.45
2023-07-15T00:19:20.155Z,3.15
2023-07-15T00:21:48.108Z,3.20
2023-07-15T00:24:15.516Z,3.70
2023-07-15T00:26:42.408Z,3.50
2023-07-15T00:29:09.253Z,3.40
2023-07-15T00:31:36.779Z,2.97
2023-07-15T00:34:04.030Z,3.15
2023-07-15T00:36:32.442Z,3.03
2023-07-15T00:39:00.858Z,3.30
2023-07-15T00:41:33.839Z,3.40
2023-07-15T00:44:06.212Z,3.35
2023-07-15T00:46:55.129Z,3.30
2023-07-15T00:49:27.754Z,3.47
2023-07-15T00:52:05.920Z,3.03
2023-07-15T00:54:38.213Z,3.27
2023-07-15T00:57:07.266Z,3.15
2023-07-15T01:02:01.521Z,3.50
2023-07-15T01:04:28.293Z,3.10
2023-07-15T01:06:55.444Z,2.80
2023-07-15T01:09:26.221Z,3.35
2023-07-15T01:11:53.191Z,3.00
2023-07-15T01:14:20.838Z,3.08
2023-07-15T01:16:49.059Z,2.95
2023-07-15T01:21:50.994Z,2.95
2023-07-15T01:24:18.773Z,3.00
2023-07-15T01:26:45.796Z,3.00
2023-07-15T01:29:14.601Z,2.95
2023-07-15T01:31:44.830Z,3.03
2023-07-15T01:34:13.798Z,2.83
2023-07-15T01:36:40.830Z,2.95
2023-07-15T01:39:10.560Z,2.90
2023-07-15T01:41:37.416Z,2.95
2023-07-15T01:44:05.626Z,2.90
2023-07-15T01:46:32.710Z,3.03
2023-07-15T01:49:03.637Z,3.00
2023-07-15T01:51:31.152Z,2.90
2023-07-15T01:54:00.144Z,3.00
2023-07-15T01:56:27.147Z,3.20
2023-07-15T01:58:54.954Z,3.00
2023-07-15T02:01:21.834Z,2.92
2023-07-15T02:03:48.787Z,3.15
2023-07-15T02:06:16.268Z,3.00
2023-07-15T02:08:45.862Z,3.10
2023-07-15T02:11:12.718Z,3.10
2023-07-15T02:13:39.516Z,3.10
2023-07-15T02:16:06.388Z,2.95
2023-07-15T02:18:33.172Z,3.00
2023-07-15T02:21:00.015Z,3.00
2023-07-15T02:23:26.787Z,2.90
2023-07-15T02:25:53.583Z,2.90
2023-07-15T02:28:22.029Z,3.20
2023-07-15T02:30:48.832Z,3.20
2023-07-15T02:33:15.652Z,2.83
2023-07-15T02:35:44.334Z,2.72
2023-07-15T02:38:11.066Z,2.85
2023-07-15T02:40:37.831Z,3.15
2023-07-15T02:43:04.612Z,3.00
2023-07-15T02:45:32.906Z,3.17
2023-07-15T02:47:59.752Z,3.00
2023-07-15T02:50:28.051Z,3.25
2023-07-15T02:52:56.044Z,3.10
2023-07-15T02:55:22.865Z,3.10
2023-07-15T02:57:49.635Z,3.22
2023-07-15T03:00:17.452Z,3.17
2023-07-15T03:02:53.551Z,3.30
2023-07-15T03:05:20.357Z,3.05
2023-07-15T03:07:48.373Z,3.30
2023-07-15T03:10:16.226Z,3.13
2023-07-15T03:12:45.909Z,3.00
2023-07-15T03:15:16.504Z,3.20
2023-07-15T03:17:43.728Z,3.13
2023-07-15T03:20:21.240Z,3.17
2023-07-15T03:22:50.156Z,3.13
2023-07-15T03:25:18.683Z,3.05
2023-07-15T03:30:13.214Z,3.42
2023-07-15T03:32:41.202Z,3.20
2023-07-15T03:35:13.199Z,3.20
2023-07-15T03:37:45.169Z,3.05
2023-07-15T03:40:13.527Z,3.22
2023-07-15T03:42:41.502Z,3.20
2023-07-15T03:45:09.316Z,3.10
2023-07-15T03:47:36.329Z,3.20
2023-07-15T03:50:07.608Z,3.45
2023-07-15T03:52:34.703Z,3.22
2023-07-15T03:55:01.499Z,3.55
2023-07-15T03:57:28.246Z,3.67
2023-07-15T03:59:55.233Z,3.67
2023-07-15T04:02:22.448Z,3.50
2023-07-15T04:04:49.278Z,3.50
2023-07-15T04:07:17.461Z,3.60
2023-07-15T04:09:44.234Z,3.80
2023-07-15T04:12:11.047Z,3.90
2023-07-15T04:14:38.016Z,3.72
2023-07-15T04:17:04.988Z,3.95
2023-07-15T04:19:31.792Z,3.88
2023-07-15T04:21:58.635Z,3.67
2023-07-15T04:24:25.428Z,3.40
2023-07-15T04:26:53.013Z,4.20
2023-07-15T04:29:19.929Z,4.07
2023-07-15T04:31:48.664Z,3.92
2023-07-15T04:34:15.549Z,4.00
2023-07-15T04:36:43.967Z,3.78
2023-07-15T04:39:10.726Z,4.13
2023-07-15T04:41:37.485Z,3.92
2023-07-15T04:44:04.370Z,3.97
2023-07-15T04:46:32.109Z,4.10
2023-07-15T04:48:59.151Z,4.00
2023-07-15T04:51:26.847Z,4.10
2023-07-15T04:53:53.674Z,4.03
2023-07-15T04:56:20.476Z,4.00
2023-07-15T04:58:49.090Z,4.50
2023-07-15T05:01:16.117Z,3.80
2023-07-15T05:03:43.295Z,4.07
2023-07-15T05:06:10.363Z,3.90
2023-07-15T05:08:38.544Z,4.05
2023-07-15T05:11:05.523Z,4.40
2023-07-15T05:13:32.442Z,3.75
2023-07-15T05:15:59.377Z,3.58
2023-07-15T05:18:26.260Z,4.00
2023-07-15T05:20:53.092Z,3.67
2023-07-15T05:23:20.004Z,3.80
2023-07-15T05:25:46.860Z,3.38
2023-07-15T05:28:13.691Z,3.50
2023-07-15T05:30:40.486Z,3.45
2023-07-15T05:33:07.304Z,3.65
2023-07-15T05:35:34.129Z,3.63
2023-07-15T05:38:01.242Z,3.78
2023-07-15T05:40:28.029Z,4.05
2023-07-15T05:42:54.842Z,3.70
2023-07-15T05:45:22.714Z,3.90
2023-07-15T05:47:49.649Z,3.80
2023-07-15T05:50:16.669Z,3.60
2023-07-15T05:52:43.534Z,4.03
2023-07-15T05:55:10.361Z,3.75
2023-07-15T05:57:37.319Z,3.95
2023-07-15T06:00:05.118Z,3.85
2023-07-15T06:02:37.609Z,3.60
2023-07-15T06:05:05.374Z,3.80
2023-07-15T06:07:32.259Z,3.55
2023-07-15T06:09:59.183Z,3.65
2023-07-15T06:12:26.224Z,3.38
2023-07-15T06:14:53.844Z,3.50
2023-07-15T06:17:21.923Z,3.85
2023-07-15T06:19:48.831Z,3.97
2023-07-15T06:22:16.527Z,4.00
2023-07-15T06:24:43.439Z,3.45
2023-07-15T06:27:10.208Z,3.90
2023-07-15T06:29:37.369Z,4.00
2023-07-15T06:32:04.555Z,3.80
2023-07-15T06:34:32.539Z,4.20
2023-07-15T06:36:59.824Z,4.05
2023-07-15T06:39:26.740Z,4.10
2023-07-15T06:41:53.931Z,4.07
2023-07-15T06:44:21.333Z,3.65
2023-07-15T06:46:48.377Z,3.67
2023-07-15T06:49:15.378Z,3.92
2023-07-15T06:51:42.396Z,4.40
2023-07-15T06:54:09.353Z,3.80
2023-07-15T06:56:36.219Z,5.10
2023-07-15T06:59:03.892Z,4.45
2023-07-15T07:01:30.899Z,4.10
2023-07-15T07:03:57.681Z,3.45
2023-07-15T07:06:26.816Z,3.30
2023-07-15T07:08:55.573Z,3.20
2023-07-15T07:11:22.652Z,2.95
2023-07-15T07:13:49.666Z,2.85
2023-07-15T07:16:17.287Z,2.90
2023-07-15T07:18:45.929Z,2.63
2023-07-15T07:21:14.257Z,2.50
2023-07-15T07:23:41.205Z,2.67
2023-07-15T07:26:08.231Z,2.80
2023-07-15T07:28:40.807Z,2.50
2023-07-15T07:31:07.986Z,2.95
2023-07-15T07:33:34.794Z,2.45
2023-07-15T07:36:01.638Z,3.30
2023-07-15T07:38:28.456Z,3.22
2023-07-15T07:40:55.238Z,2.92
2023-07-15T07:43:22.036Z,3.00
2023-07-15T07:45:48.840Z,3.58
2023-07-15T07:48:15.602Z,3.50
2023-07-15T07:50:42.764Z,3.60
2023-07-15T07:53:10.693Z,3.10
2023-07-15T07:55:37.506Z,3.40
2023-07-15T07:58:04.311Z,3.40
2023-07-15T08:00:31.128Z,3.55
2023-07-15T08:02:57.971Z,3.30
2023-07-15T08:05:24.887Z,3.28
2023-07-15T08:07:51.727Z,3.03
2023-07-15T08:10:18.472Z,3.00
2023-07-15T08:12:45.224Z,3.35
2023-07-15T08:15:12.173Z,3.33
2023-07-15T08:17:39.073Z,3.30
2023-07-15T08:20:06.750Z,3.60
2023-07-15T08:22:33.756Z,4.45
2023-07-15T08:25:00.674Z,5.20
2023-07-15T08:27:27.412Z,5.85
2023-07-15T08:29:54.208Z,5.88
2023-07-15T08:32:21.012Z,4.78
2023-07-15T08:35:01.515Z,5.43
2023-07-15T08:37:28.462Z,4.40
2023-07-15T08:39:55.437Z,5.18
2023-07-15T08:42:22.522Z,4.22
2023-07-15T08:44:50.146Z,3.10
2023-07-15T08:47:20.803Z,2.70
2023-07-15T08:49:52.593Z,2.17
2023-07-15T08:52:21.028Z,3.00
2023-07-15T08:54:52.564Z,3.88
2023-07-15T08:57:20.790Z,2.72
2023-07-15T08:59:54.114Z,2.90
2023-07-15T09:02:21.300Z,8.18
2023-07-15T09:04:48.171Z,2.25
2023-07-15T09:07:15.142Z,3.70
2023-07-15T09:09:43.342Z,3.70
2023-07-15T09:12:12.422Z,6.40
2023-07-15T09:14:54.019Z,3.25
2023-07-15T09:17:22.436Z,3.33
2023-07-15T09:19:50.255Z,3.50
2023-07-15T09:22:19.267Z,3.10
2023-07-15T09:27:13.042Z,3.70
2023-07-15T09:29:39.975Z,3.95
2023-07-15T09:32:09.191Z,2.80
2023-07-15T09:34:44.373Z,3.08
2023-07-15T09:37:12.655Z,3.42
2023-07-15T09:39:39.510Z,2.95
2023-07-15T09:42:08.323Z,3.10
2023-07-15T09:47:06.777Z,2.83
2023-07-15T09:49:34.142Z,2.90
2023-07-15T09:52:02.621Z,2.92
2023-07-15T09:54:32.530Z,2.97
2023-07-15T09:57:13.123Z,2.60
2023-07-15T09:59:48.200Z,2.80
2023-07-15T10:02:39.119Z,2.85
2023-07-15T10:05:06.676Z,2.40
2023-07-15T10:07:34.253Z,2.67
2023-07-15T10:10:01.752Z,2.85
2023-07-15T10:12:29.607Z,2.65
2023-07-15T10:14:56.757Z,2.70
2023-07-15T10:17:23.821Z,3.10
2023-07-15T10:19:52.177Z,2.45
2023-07-15T10:22:21.137Z,2.40
2023-07-15T10:24:55.332Z,2.40
2023-07-15T10:27:22.814Z,2.30
2023-07-15T10:30:16.816Z,2.58
2023-07-15T10:33:09.607Z,2.42
2023-07-15T10:35:47.874Z,2.58
2023-07-15T10:38:28.833Z,2.10
2023-07-15T10:41:06.494Z,2.40
2023-07-15T10:43:36.659Z,2.17
2023-07-15T10:46:07.731Z,2.17
2023-07-15T10:48:34.774Z,2.20
2023-07-15T10:51:08.363Z,2.38
2023-07-15T10:53:36.088Z,2.30
2023-07-15T10:56:08.184Z,2.38
2023-07-15T10:58:36.391Z,2.40
2023-07-15T11:01:08.660Z,2.10
2023-07-15T11:03:44.612Z,2.22
2023-07-15T11:06:12.622Z,2.05
2023-07-15T11:08:41.451Z,2.20
2023-07-15T11:11:13.631Z,2.28
2023-07-15T11:13:42.789Z,2.15
2023-07-15T11:16:10.060Z,2.20
2023-07-15T11:18:37.064Z,2.20
2023-07-15T11:21:03.930Z,2.10
2023-07-15T11:23:32.232Z,2.50
2023-07-15T11:26:07.310Z,2.33
2023-07-15T11:28:34.190Z,2.30
2023-07-15T11:31:01.060Z,2.40
2023-07-15T11:33:27.908Z,2.38
2023-07-15T11:35:54.669Z,2.40
2023-07-15T11:38:33.610Z,2.42
2023-07-15T11:41:00.931Z,2.58
2023-07-15T11:43:29.264Z,2.40
2023-07-15T11:46:00.911Z,2.60
2023-07-15T11:48:34.936Z,2.30
2023-07-15T11:51:10.906Z,2.63
2023-07-15T11:53:39.776Z,2.63
2023-07-15T11:56:07.530Z,2.70
2023-07-15T11:58:54.072Z,2.30
2023-07-15T12:01:25.239Z,2.40
2023-07-15T12:03:53.208Z,2.60
2023-07-15T12:06:28.656Z,2.53
2023-07-15T12:09:11.425Z,2.67
2023-07-15T12:11:38.761Z,2.47
2023-07-15T12:14:07.099Z,2.60
2023-07-15T12:16:35.617Z,2.47
2023-07-15T12:19:03.421Z,2.72
2023-07-15T12:21:30.622Z,2.80
2023-07-15T12:23:57.790Z,3.13
2023-07-15T12:26:25.150Z,2.60
2023-07-15T12:28:52.711Z,2.50
2023-07-15T12:31:19.990Z,2.58
2023-07-15T12:33:47.136Z,2.85
2023-07-15T12:36:15.732Z,2.28
2023-07-15T12:41:10.136Z,3.53
2023-07-15T12:43:38.417Z,2.67
2023-07-15T12:46:05.661Z,2.75
2023-07-15T12:48:32.510Z,2.60
2023-07-15T12:50:59.639Z,2.70
2023-07-15T12:53:26.951Z,2.60
2023-07-15T12:55:57.170Z,2.70
2023-07-15T12:58:24.585Z,2.90
2023-07-15T13:00:51.506Z,2.70
2023-07-15T13:03:19.008Z,2.70
2023-07-15T13:05:46.269Z,2.78
2023-07-15T13:08:16.381Z,2.85
2023-07-15T13:10:46.880Z,2.75
2023-07-15T13:13:13.999Z,2.92
2023-07-15T13:15:45.544Z,2.90
2023-07-15T13:18:13.332Z,2.78
2023-07-15T13:20:40.442Z,2.50
2023-07-15T13:23:07.391Z,3.40
2023-07-15T13:28:02.647Z,3.10
2023-07-15T13:30:29.543Z,3.17
2023-07-15T13:32:56.425Z,3.03
2023-07-15T13:35:23.298Z,2.80
2023-07-15T13:37:50.070Z,2.80
2023-07-15T13:40:17.020Z,4.07
2023-07-15T13:42:44.117Z,3.83
2023-07-15T13:45:10.888Z,4.25
2023-07-15T13:47:37.770Z,2.90
2023-07-15T13:50:05.003Z,2.72
2023-07-15T13:52:32.928Z,2.70
2023-07-15T13:54:59.792Z,2.78
2023-07-15T13:57:26.646Z,2.60
2023-07-15T13:59:53.538Z,2.92
2023-07-15T14:02:20.588Z,2.63
2023-07-15T14:04:47.407Z,2.97
2023-07-15T14:07:15.906Z,2.92
2023-07-15T14:12:09.588Z,3.15
2023-07-15T14:14:36.418Z,3.00
2023-07-15T14:17:03.976Z,2.80
2023-07-15T14:19:30.946Z,2.83
2023-07-15T14:22:13.525Z,3.05
2023-07-15T14:24:41.142Z,2.92
2023-07-15T14:27:08.343Z,3.33
2023-07-15T14:29:35.115Z,3.15
2023-07-15T14:32:04.120Z,3.25
2023-07-15T14:34:31.861Z,3.45
2023-07-15T14:36:59.078Z,3.07
2023-07-15T14:39:26.012Z,3.30
2023-07-15T14:41:52.801Z,3.50
2023-07-15T14:44:19.698Z,3.30
2023-07-15T14:46:47.740Z,3.40
2023-07-15T14:49:14.761Z,3.08
2023-07-15T14:51:41.659Z,3.13
2023-07-15T14:54:08.823Z,3.47
2023-07-15T14:56:35.760Z,3.30
2023-07-15T14:59:02.710Z,3.00
2023-07-15T15:01:31.130Z,3.15
2023-07-15T15:03:58.447Z,3.60
2023-07-15T15:06:25.630Z,3.47
2023-07-15T15:08:52.626Z,3.25
2023-07-15T15:11:20.092Z,3.40
2023-07-15T15:13:50.621Z,3.40
2023-07-15T15:16:17.754Z,3.17
2023-07-15T15:18:46.514Z,3.38
2023-07-15T15:21:14.480Z,3.72
2023-07-15T15:23:41.879Z,3.58
2023-07-15T15:26:08.711Z,3.70
2023-07-15T15:28:36.333Z,3.65
2023-07-15T15:31:03.302Z,3.83
2023-07-15T15:33:30.241Z,3.20
2023-07-15T15:35:57.245Z,2.95
2023-07-15T15:38:24.005Z,3.10
2023-07-15T15:40:52.381Z,3.13
2023-07-15T15:43:22.558Z,3.53
2023-07-15T15:45:49.350Z,3.08
2023-07-15T15:48:16.261Z,3.00
2023-07-15T15:50:43.028Z,3.30
2023-07-15T15:53:09.884Z,2.90
2023-07-15T15:55:36.847Z,2.70
2023-07-15T15:58:03.938Z,2.75
2023-07-15T16:00:30.814Z,3.17
2023-07-15T16:02:57.766Z,3.10
2023-07-15T16:05:24.539Z,3.20
2023-07-15T16:07:51.338Z,3.30
2023-07-15T16:10:18.164Z,3.28
2023-07-15T16:12:45.009Z,3.20
2023-07-15T16:15:11.945Z,2.92
2023-07-15T16:17:38.904Z,2.97
2023-07-15T16:20:08.018Z,2.67
2023-07-15T16:22:35.512Z,2.97
2023-07-15T16:25:02.906Z,2.90
2023-07-15T16:27:30.575Z,2.10
2023-07-15T16:29:57.453Z,2.55
2023-07-15T16:32:25.505Z,2.78
2023-07-15T16:34:55.474Z,3.20
2023-07-15T16:37:24.706Z,2.28
2023-07-15T16:39:52.179Z,2.28
2023-07-15T16:42:19.229Z,2.55
2023-07-15T16:44:46.639Z,2.70
2023-07-15T16:47:13.595Z,2.80
2023-07-15T16:49:42.100Z,2.55
2023-07-15T16:52:09.388Z,2.47
2023-07-15T16:54:36.276Z,2.35
2023-07-15T16:57:03.460Z,2.50
2023-07-15T16:59:30.398Z,2.38
2023-07-15T17:01:57.354Z,2.30
2023-07-15T17:04:25.168Z,2.55
2023-07-15T17:06:52.287Z,2.40
2023-07-15T17:09:19.367Z,2.47
2023-07-15T17:11:46.125Z,2.42
2023-07-15T17:14:13.020Z,2.40
2023-07-15T17:16:40.101Z,2.35
2023-07-15T17:19:06.928Z,2.38
2023-07-15T17:21:34.574Z,2.60
2023-07-15T17:24:01.503Z,2.53
2023-07-15T17:26:28.333Z,2.45
2023-07-15T17:28:55.145Z,2.22
2023-07-15T17:31:22.009Z,2.08
2023-07-15T17:33:48.917Z,2.47
2023-07-15T17:36:16.127Z,2.47
2023-07-15T17:38:43.285Z,2.53
2023-07-15T17:41:10.129Z,2.50
2023-07-15T17:43:36.940Z,2.58
2023-07-15T17:46:03.933Z,3.00
2023-07-15T17:48:30.858Z,2.70
2023-07-15T17:50:57.838Z,2.33
2023-07-15T17:53:24.782Z,2.70
2023-07-15T17:55:52.251Z,2.50
2023-07-15T17:58:19.592Z,2.50
2023-07-15T18:00:46.738Z,2.20
2023-07-15T18:03:13.621Z,1.95
2023-07-15T18:05:43.258Z,2.28
2023-07-15T18:08:10.644Z,2.50
2023-07-15T18:10:38.215Z,2.75
2023-07-15T18:13:05.975Z,2.30
2023-07-15T18:15:34.068Z,2.45
2023-07-15T18:18:01.018Z,2.40
2023-07-15T18:20:28.037Z,2.53
2023-07-15T18:22:55.055Z,2.55
2023-07-15T18:25:22.862Z,2.65
2023-07-15T18:27:49.936Z,2.70
2023-07-15T18:30:16.834Z,2.90
2023-07-15T18:32:50.532Z,2.70
2023-07-15T18:35:18.323Z,3.00
2023-07-15T18:37:45.153Z,2.80
2023-07-15T18:40:12.334Z,2.70
2023-07-15T18:42:39.290Z,2.90
2023-07-15T18:45:07.106Z,2.53
2023-07-15T18:47:34.482Z,2.90
2023-07-15T18:50:01.669Z,2.80
2023-07-15T18:52:28.709Z,2.97
2023-07-15T18:54:55.641Z,3.20
2023-07-15T18:57:23.670Z,3.00
2023-07-15T18:59:51.596Z,3.13
2023-07-15T19:02:18.670Z,2.67
2023-07-15T19:04:46.599Z,2.78
2023-07-15T19:07:13.530Z,2.70
2023-07-15T19:09:40.688Z,2.72
2023-07-15T19:12:08.358Z,2.90
2023-07-15T19:14:35.228Z,2.90
2023-07-15T19:17:02.261Z,2.65
2023-07-15T19:19:29.185Z,2.70
2023-07-15T19:21:57.070Z,2.92
2023-07-15T19:24:24.118Z,2.38
2023-07-15T19:26:51.269Z,2.80
2023-07-15T19:29:18.183Z,2.47
2023-07-15T19:31:45.166Z,2.47
2023-07-15T19:34:12.095Z,2.80
2023-07-15T19:36:38.941Z,2.33
2023-07-15T19:39:08.437Z,2.65
2023-07-15T19:41:35.678Z,2.53
2023-07-15T19:44:02.853Z,2.90
2023-07-15T19:46:30.057Z,2.97
2023-07-15T19:48:57.063Z,3.05
2023-07-15T19:51:35.627Z,2.95
2023-07-15T19:54:10.909Z,3.03
2023-07-15T19:56:37.845Z,2.58
2023-07-15T19:59:06.903Z,2.72
2023-07-15T20:01:34.610Z,2.80
2023-07-15T20:04:01.844Z,2.63
2023-07-15T20:06:28.955Z,2.67
2023-07-15T20:08:56.074Z,2.72
2023-07-15T20:11:23.010Z,2.50
2023-07-15T20:13:49.864Z,2.83
2023-07-15T20:16:17.111Z,2.60
2023-07-15T20:18:44.141Z,2.70
2023-07-15T20:21:10.979Z,2.83
2023-07-15T20:23:38.079Z,2.40
2023-07-15T20:26:05.112Z,2.60
2023-07-15T20:28:32.034Z,2.63
2023-07-15T20:31:03.214Z,2.70
2023-07-15T20:33:30.660Z,2.80
2023-07-15T20:35:57.592Z,2.50
2023-07-15T20:38:24.644Z,2.33
2023-07-15T20:40:57.498Z,2.65
2023-07-15T20:43:25.491Z,2.58
2023-07-15T20:45:52.706Z,2.70
2023-07-15T20:48:19.712Z,2.60
2023-07-15T20:50:46.722Z,2.80
2023-07-15T20:53:13.688Z,2.38
2023-07-15T20:55:41.655Z,2.67
2023-07-15T20:58:08.907Z,2.57
2023-07-15T21:00:35.839Z,2.30
2023-07-15T21:03:02.779Z,2.53
2023-07-15T21:05:29.865Z,2.60
2023-07-15T21:07:56.718Z,2.47
2023-07-15T21:10:23.778Z,2.50
2023-07-15T21:12:50.715Z,2.38
2023-07-15T21:15:17.659Z,2.63
2023-07-15T21:17:44.673Z,2.78
2023-07-15T21:20:13.905Z,2.50
2023-07-15T21:22:42.576Z,2.20
2023-07-15T21:25:09.733Z,2.58
2023-07-15T21:27:36.649Z,2.75
2023-07-15T21:30:05.162Z,2.70
2023-07-15T21:32:32.151Z,2.60
2023-07-15T21:34:59.173Z,2.50
2023-07-15T21:37:26.146Z,2.60
2023-07-15T21:39:53.025Z,2.70
2023-07-15T21:42:19.882Z,2.58
2023-07-15T21:44:46.931Z,2.65
2023-07-15T21:47:13.872Z,2.40
2023-07-15T21:49:40.734Z,2.80
2023-07-15T21:52:07.796Z,2.40
2023-07-15T21:54:34.723Z,2.50
2023-07-15T21:57:01.572Z,2.47
2023-07-15T21:59:28.512Z,2.70
2023-07-15T22:01:55.363Z,2.58
2023-07-15T22:04:22.213Z,2.50
2023-07-15T22:06:49.153Z,2.67
2023-07-15T22:09:15.994Z,2.40
2023-07-15T22:11:42.897Z,2.40
2023-07-15T22:14:09.986Z,2.47
2023-07-15T22:16:37.093Z,2.67
2023-07-15T22:19:05.554Z,2.80
2023-07-15T22:21:35.550Z,2.47
2023-07-15T22:24:02.784Z,2.40
2023-07-15T22:26:30.249Z,2.63
2023-07-15T22:28:57.106Z,2.60
2023-07-15T22:31:24.085Z,2.33
2023-07-15T22:33:51.058Z,2.47
2023-07-15T22:36:18.071Z,2.63
2023-07-15T22:38:45.973Z,2.33
2023-07-15T22:41:12.956Z,2.60
2023-07-15T22:43:39.792Z,2.60
2023-07-15T22:46:06.662Z,2.30
2023-07-15T22:48:33.563Z,2.38
2023-07-15T22:51:00.745Z,2.20
2023-07-15T22:53:27.661Z,2.35
2023-07-15T22:55:54.600Z,2.40
2023-07-15T22:58:21.937Z,2.40
2023-07-15T23:00:49.019Z,2.10
2023-07-15T23:03:16.047Z,2.40
2023-07-15T23:05:43.047Z,2.40
2023-07-15T23:08:10.057Z,2.28
2023-07-15T23:10:37.012Z,2.50
2023-07-15T23:13:04.137Z,2.60
2023-07-15T23:15:31.100Z,2.65
2023-07-15T23:17:58.112Z,2.50
2023-07-15T23:20:25.205Z,2.40
2023-07-15T23:22:59.764Z,2.50
2023-07-15T23:25:37.758Z,2.30
2023-07-15T23:28:04.807Z,2.63
2023-07-15T23:30:33.922Z,2.38
2023-07-15T23:33:01.043Z,2.40
2023-07-15T23:35:27.986Z,2.38
2023-07-15T23:37:55.212Z,2.55
2023-07-15T23:40:22.200Z,2.38
2023-07-15T23:42:49.133Z,2.42
2023-07-15T23:45:16.075Z,2.30
2023-07-15T23:47:42.934Z,2.40
2023-07-15T23:50:10.393Z,2.67
2023-07-15T23:52:37.299Z,2.40
2023-07-15T23:55:04.655Z,2.20
2023-07-15T23:57:31.583Z,2.65
2023-07-15T23:59:58.442Z,2.30
